Ridgetown, Canada
Current Conditions -  °F | °C
As of 9:00 PM on Wednesday 26 Nov 2014 (Local Time) from CYCK Reporting Station
Overcast Overcast  
Wind Chill: -4°   Ceiling: 4400
Heat Index:   Visibility: 9mi
Dew Point: -2°   Wind: 9mph
Humidity: 87%   Direction: 20°NNE
Pressure: 30.05"   Gusts: NA
Location:  42.43°N, 81.88°W
Report Text: CYCK 270200Z AUTO 02008KT 9SM OVC044 00/M02 A3005 RMK SLP183
Loading
Personal Weather Stations






























Interactive Weather Map New forecast layout! Learn more

10-Day Weather Forecast

Advertisements
Track Severe Weather on mobile